sensor_id;sensor_type;location;lat;lon;timestamp;pressure;altitude;pressure_sealevel;temperature;humidity
48964;BME280;34776;48.180;16.420;2022-12-29T00:01:30;100090.38;;;1.07;79.87
48964;BME280;34776;48.180;16.420;2022-12-29T00:03:56;100083.44;;;1.02;79.86
48964;BME280;34776;48.180;16.420;2022-12-29T00:06:21;100100.88;;;1.04;80.30
48964;BME280;34776;48.180;16.420;2022-12-29T00:08:46;100095.66;;;1.04;80.23
48964;BME280;34776;48.180;16.420;2022-12-29T00:11:24;100081.72;;;1.01;80.37
48964;BME280;34776;48.180;16.420;2022-12-29T00:13:50;100090.41;;;1.02;80.28
48964;BME280;34776;48.180;16.420;2022-12-29T00:16:35;100086.94;;;0.98;80.22
48964;BME280;34776;48.180;16.420;2022-12-29T00:19:02;100088.72;;;0.96;80.38
48964;BME280;34776;48.180;16.420;2022-12-29T00:21:28;100094.84;;;0.94;80.37
48964;BME280;34776;48.180;16.420;2022-12-29T00:24:17;100098.38;;;0.88;80.65
48964;BME280;34776;48.180;16.420;2022-12-29T00:29:45;100099.31;;;0.79;80.38
48964;BME280;34776;48.180;16.420;2022-12-29T00:32:29;100099.34;;;0.75;80.43
48964;BME280;34776;48.180;16.420;2022-12-29T00:35:15;100113.31;;;0.71;80.41
48964;BME280;34776;48.180;16.420;2022-12-29T00:37:43;100108.97;;;0.68;80.45
48964;BME280;34776;48.180;16.420;2022-12-29T00:40:30;100110.72;;;0.65;80.49
48964;BME280;34776;48.180;16.420;2022-12-29T00:43:13;100109.88;;;0.63;80.67
48964;BME280;34776;48.180;16.420;2022-12-29T00:45:57;100109.91;;;0.56;80.61
48964;BME280;34776;48.180;16.420;2022-12-29T00:48:23;100105.56;;;0.54;80.58
48964;BME280;34776;48.180;16.420;2022-12-29T00:51:07;100103.84;;;0.50;80.74
48964;BME280;34776;48.180;16.420;2022-12-29T00:53:33;100097.75;;;0.48;80.63
48964;BME280;34776;48.180;16.420;2022-12-29T00:55:59;100104.75;;;0.47;80.89
48964;BME280;34776;48.180;16.420;2022-12-29T00:58:27;100106.47;;;0.48;81.09
48964;BME280;34776;48.180;16.420;2022-12-29T01:01:03;100109.13;;;0.47;80.92
48964;BME280;34776;48.180;16.420;2022-12-29T01:03:29;100112.59;;;0.47;81.06
48964;BME280;34776;48.180;16.420;2022-12-29T01:05:55;100111.72;;;0.44;80.81
48964;BME280;34776;48.180;16.420;2022-12-29T01:08:20;100104.78;;;0.41;81.00
48964;BME280;34776;48.180;16.420;2022-12-29T01:10:46;100117.00;;;0.40;80.83
48964;BME280;34776;48.180;16.420;2022-12-29T01:13:11;100124.81;;;0.40;81.04
48964;BME280;34776;48.180;16.420;2022-12-29T01:15:37;100130.06;;;0.40;80.87
48964;BME280;34776;48.180;16.420;2022-12-29T01:18:02;100130.06;;;0.37;80.82
48964;BME280;34776;48.180;16.420;2022-12-29T01:20:28;100127.47;;;0.36;80.71
48964;BME280;34776;48.180;16.420;2022-12-29T01:22:54;100133.56;;;0.33;81.04
48964;BME280;34776;48.180;16.420;2022-12-29T01:25:19;100132.69;;;0.33;81.00
48964;BME280;34776;48.180;16.420;2022-12-29T01:27:45;100134.44;;;0.31;80.91
48964;BME280;34776;48.180;16.420;2022-12-29T01:30:10;100130.97;;;0.29;80.93
48964;BME280;34776;48.180;16.420;2022-12-29T01:32:36;100137.06;;;0.29;80.91
48964;BME280;34776;48.180;16.420;2022-12-29T01:35:01;100131.00;;;0.26;81.01
48964;BME280;34776;48.180;16.420;2022-12-29T01:37:27;100134.47;;;0.25;81.13
48964;BME280;34776;48.180;16.420;2022-12-29T01:39:52;100131.00;;;0.23;81.20
48964;BME280;34776;48.180;16.420;2022-12-29T01:42:19;100132.75;;;0.20;81.23
48964;BME280;34776;48.180;16.420;2022-12-29T01:44:53;100129.25;;;0.18;81.39
48964;BME280;34776;48.180;16.420;2022-12-29T01:50:07;100132.75;;;0.14;81.41
48964;BME280;34776;48.180;16.420;2022-12-29T01:52:38;100136.28;;;0.13;81.39
48964;BME280;34776;48.180;16.420;2022-12-29T01:55:06;100122.31;;;0.14;81.51
48964;BME280;34776;48.180;16.420;2022-12-29T01:57:37;100115.34;;;0.16;81.66
48964;BME280;34776;48.180;16.420;2022-12-29T02:00:12;100124.94;;;0.16;81.62
48964;BME280;34776;48.180;16.420;2022-12-29T02:02:42;100112.72;;;0.19;81.53
48964;BME280;34776;48.180;16.420;2022-12-29T02:07:59;100104.84;;;0.23;81.51
48964;BME280;34776;48.180;16.420;2022-12-29T02:10:27;100103.97;;;0.25;81.70
48964;BME280;34776;48.180;16.420;2022-12-29T02:12:53;100093.53;;;0.27;81.91
48964;BME280;34776;48.180;16.420;2022-12-29T02:15:35;100088.28;;;0.28;81.62
48964;BME280;34776;48.180;16.420;2022-12-29T02:24:12;100081.31;;;0.27;81.55
48964;BME280;34776;48.180;16.420;2022-12-29T02:34:48;100073.56;;;0.15;81.44
48964;BME280;34776;48.180;16.420;2022-12-29T02:37:34;100064.84;;;0.11;81.35
48964;BME280;34776;48.180;16.420;2022-12-29T02:40:17;100065.75;;;0.09;81.58
48964;BME280;34776;48.180;16.420;2022-12-29T02:43:02;100066.59;;;0.09;81.56
48964;BME280;34776;48.180;16.420;2022-12-29T02:45:36;100064.84;;;0.11;81.87
48964;BME280;34776;48.180;16.420;2022-12-29T02:48:09;100073.56;;;0.12;81.75
48964;BME280;34776;48.180;16.420;2022-12-29T02:50:40;100076.16;;;0.12;81.92
48964;BME280;34776;48.180;16.420;2022-12-29T02:53:15;100078.78;;;0.10;81.62
48964;BME280;34776;48.180;16.420;2022-12-29T02:55:49;100087.50;;;0.09;81.70
48964;BME280;34776;48.180;16.420;2022-12-29T02:58:18;100078.81;;;0.07;81.57
48964;BME280;34776;48.180;16.420;2022-12-29T03:09:14;100075.31;;;0.08;82.03
48964;BME280;34776;48.180;16.420;2022-12-29T03:11:52;100070.97;;;0.09;81.97
48964;BME280;34776;48.180;16.420;2022-12-29T03:15:09;100065.75;;;0.09;82.24
48964;BME280;34776;48.180;16.420;2022-12-29T03:18:01;100068.34;;;0.13;81.96
48964;BME280;34776;48.180;16.420;2022-12-29T03:20:37;100063.09;;;0.10;82.04
48964;BME280;34776;48.180;16.420;2022-12-29T03:23:05;100066.59;;;0.12;81.82
48964;BME280;34776;48.180;16.420;2022-12-29T03:25:33;100064.84;;;0.11;81.77
48964;BME280;34776;48.180;16.420;2022-12-29T03:28:09;100065.72;;;0.13;81.54
48964;BME280;34776;48.180;16.420;2022-12-29T03:30:37;100070.06;;;0.14;81.66
48964;BME280;34776;48.180;16.420;2022-12-29T03:33:08;100066.59;;;0.15;81.85
48964;BME280;34776;48.180;16.420;2022-12-29T03:35:37;100063.97;;;0.17;81.81
48964;BME280;34776;48.180;16.420;2022-12-29T03:38:13;100079.66;;;0.17;81.70
48964;BME280;34776;48.180;16.420;2022-12-29T03:40:43;100080.47;;;0.20;81.73
48964;BME280;34776;48.180;16.420;2022-12-29T03:43:10;100068.28;;;0.23;81.77
48964;BME280;34776;48.180;16.420;2022-12-29T03:45:37;100069.13;;;0.25;82.02
48964;BME280;34776;48.180;16.420;2022-12-29T03:48:03;100071.75;;;0.23;82.03
48964;BME280;34776;48.180;16.420;2022-12-29T03:50:29;100068.28;;;0.23;81.87
48964;BME280;34776;48.180;16.420;2022-12-29T03:52:54;100075.25;;;0.24;82.08
48964;BME280;34776;48.180;16.420;2022-12-29T03:55:20;100085.72;;;0.24;82.11
48964;BME280;34776;48.180;16.420;2022-12-29T03:57:45;100079.59;;;0.25;82.14
48964;BME280;34776;48.180;16.420;2022-12-29T04:00:11;100083.97;;;0.26;82.12
48964;BME280;34776;48.180;16.420;2022-12-29T04:02:36;100086.56;;;0.26;81.83
48964;BME280;34776;48.180;16.420;2022-12-29T04:05:02;100080.47;;;0.24;82.03
48964;BME280;34776;48.180;16.420;2022-12-29T04:07:28;100078.72;;;0.23;82.35
48964;BME280;34776;48.180;16.420;2022-12-29T04:09:53;100081.34;;;0.24;82.32
48964;BME280;34776;48.180;16.420;2022-12-29T04:12:18;100076.09;;;0.27;82.51
48964;BME280;34776;48.180;16.420;2022-12-29T04:14:44;100073.47;;;0.29;82.62
48964;BME280;34776;48.180;16.420;2022-12-29T04:17:09;100073.47;;;0.30;82.69
48964;BME280;34776;48.180;16.420;2022-12-29T04:19:34;100077.81;;;0.33;82.88
48964;BME280;34776;48.180;16.420;2022-12-29T04:22:00;100071.72;;;0.31;82.83
48964;BME280;34776;48.180;16.420;2022-12-29T04:24:25;100076.09;;;0.30;82.86
48964;BME280;34776;48.180;16.420;2022-12-29T04:26:50;100075.22;;;0.30;82.88
48964;BME280;34776;48.180;16.420;2022-12-29T04:29:16;100076.09;;;0.30;82.76
48964;BME280;34776;48.180;16.420;2022-12-29T04:31:41;100070.84;;;0.29;82.94
48964;BME280;34776;48.180;16.420;2022-12-29T04:34:07;100074.34;;;0.29;82.96
48964;BME280;34776;48.180;16.420;2022-12-29T04:36:32;100079.56;;;0.31;83.09
48964;BME280;34776;48.180;16.420;2022-12-29T04:38:58;100080.41;;;0.33;83.29
48964;BME280;34776;48.180;16.420;2022-12-29T04:41:24;100083.03;;;0.33;83.41
48964;BME280;34776;48.180;16.420;2022-12-29T04:43:49;100082.19;;;0.34;83.78
48964;BME280;34776;48.180;16.420;2022-12-29T04:46:14;100084.75;;;0.37;83.92
48964;BME280;34776;48.180;16.420;2022-12-29T04:48:40;100082.16;;;0.40;83.66
48964;BME280;34776;48.180;16.420;2022-12-29T04:51:05;100085.63;;;0.39;83.63
48964;BME280;34776;48.180;16.420;2022-12-29T04:53:31;100083.03;;;0.36;83.79
48964;BME280;34776;48.180;16.420;2022-12-29T04:55:56;100078.66;;;0.35;83.84
48964;BME280;34776;48.180;16.420;2022-12-29T04:58:21;100076.94;;;0.34;83.89
48964;BME280;34776;48.180;16.420;2022-12-29T05:00:47;100076.09;;;0.32;83.75
48964;BME280;34776;48.180;16.420;2022-12-29T05:03:12;100088.25;;;0.31;83.70
48964;BME280;34776;48.180;16.420;2022-12-29T05:05:38;100077.84;;;0.28;83.83
48964;BME280;34776;48.180;16.420;2022-12-29T05:08:03;100076.09;;;0.29;83.74
48964;BME280;34776;48.180;16.420;2022-12-29T05:10:29;100081.31;;;0.27;83.79
48964;BME280;34776;48.180;16.420;2022-12-29T05:12:54;100083.06;;;0.25;83.65
48964;BME280;34776;48.180;16.420;2022-12-29T05:15:20;100087.47;;;0.22;83.94
48964;BME280;34776;48.180;16.420;2022-12-29T05:17:45;100086.59;;;0.21;84.08
48964;BME280;34776;48.180;16.420;2022-12-29T05:20:10;100080.50;;;0.19;84.08
48964;BME280;34776;48.180;16.420;2022-12-29T05:22:36;100089.22;;;0.16;83.92
48964;BME280;34776;48.180;16.420;2022-12-29T05:25:02;100089.25;;;0.13;84.08
48964;BME280;34776;48.180;16.420;2022-12-29T05:27:27;100091.84;;;0.13;84.11
48964;BME280;34776;48.180;16.420;2022-12-29T05:29:53;100087.50;;;0.09;84.13
48964;BME280;34776;48.180;16.420;2022-12-29T05:32:18;100092.72;;;0.06;84.00
48964;BME280;34776;48.180;16.420;2022-12-29T05:34:44;100085.78;;;0.05;84.19
48964;BME280;34776;48.180;16.420;2022-12-29T05:37:09;100087.53;;;0.03;84.10
48964;BME280;34776;48.180;16.420;2022-12-29T05:39:34;100098.00;;;-0.03;84.01
48964;BME280;34776;48.180;16.420;2022-12-29T05:42:00;100101.50;;;-0.04;84.22
48964;BME280;34776;48.180;16.420;2022-12-29T05:44:25;100099.75;;;-0.05;84.51
48964;BME280;34776;48.180;16.420;2022-12-29T05:46:51;100104.13;;;-0.06;84.22
48964;BME280;34776;48.180;16.420;2022-12-29T05:49:17;100100.66;;;-0.06;84.02
48964;BME280;34776;48.180;16.420;2022-12-29T05:51:43;100098.91;;;-0.10;84.16
48964;BME280;34776;48.180;16.420;2022-12-29T05:54:09;100095.44;;;-0.15;84.03
48964;BME280;34776;48.180;16.420;2022-12-29T05:56:34;100100.66;;;-0.15;84.07
48964;BME280;34776;48.180;16.420;2022-12-29T05:59:00;100100.66;;;-0.15;84.27
48964;BME280;34776;48.180;16.420;2022-12-29T06:01:25;100100.66;;;-0.14;84.11
48964;BME280;34776;48.180;16.420;2022-12-29T06:03:50;100103.25;;;-0.09;84.29
48964;BME280;34776;48.180;16.420;2022-12-29T06:06:16;100104.13;;;-0.04;83.92
48964;BME280;34776;48.180;16.420;2022-12-29T06:08:41;100099.72;;;0.04;84.07
48964;BME280;34776;48.180;16.420;2022-12-29T06:11:06;100098.81;;;0.11;84.18
48964;BME280;34776;48.180;16.420;2022-12-29T06:13:32;100104.88;;;0.19;83.98
48964;BME280;34776;48.180;16.420;2022-12-29T06:15:57;100103.13;;;0.22;83.53
48964;BME280;34776;48.180;16.420;2022-12-29T06:18:23;100101.38;;;0.24;83.50
48964;BME280;34776;48.180;16.420;2022-12-29T06:20:48;100097.00;;;0.29;83.52
48964;BME280;34776;48.180;16.420;2022-12-29T06:23:13;100085.63;;;0.37;83.32
48964;BME280;34776;48.180;16.420;2022-12-29T06:25:39;100088.19;;;0.45;83.79
48964;BME280;34776;48.180;16.420;2022-12-29T06:28:05;100093.38;;;0.54;83.76
48964;BME280;34776;48.180;16.420;2022-12-29T06:30:31;100096.81;;;0.64;84.02
48964;BME280;34776;48.180;16.420;2022-12-29T06:32:58;100099.34;;;0.75;83.90
48964;BME280;34776;48.180;16.420;2022-12-29T06:35:23;100094.88;;;0.88;84.06
48964;BME280;34776;48.180;16.420;2022-12-29T06:37:48;100094.81;;;0.98;83.76
48964;BME280;34776;48.180;16.420;2022-12-29T06:40:14;100093.91;;;1.06;83.81
48964;BME280;34776;48.180;16.420;2022-12-29T06:42:40;100095.59;;;1.10;83.82
48964;BME280;34776;48.180;16.420;2022-12-29T06:45:05;100099.09;;;1.09;84.03
48964;BME280;34776;48.180;16.420;2022-12-29T06:47:33;100109.50;;;1.15;84.27
48964;BME280;34776;48.180;16.420;2022-12-29T06:49:58;100112.09;;;1.19;84.47
48964;BME280;34776;48.180;16.420;2022-12-29T06:52:24;100114.66;;;1.27;84.53
48964;BME280;34776;48.180;16.420;2022-12-29T06:54:49;100112.84;;;1.32;84.49
48964;BME280;34776;48.180;16.420;2022-12-29T06:57:15;100117.16;;;1.39;84.53
48964;BME280;34776;48.180;16.420;2022-12-29T06:59:41;100114.50;;;1.46;84.66
48964;BME280;34776;48.180;16.420;2022-12-29T07:02:06;100115.34;;;1.49;84.79
48964;BME280;34776;48.180;16.420;2022-12-29T07:04:31;100112.66;;;1.54;85.12
48964;BME280;34776;48.180;16.420;2022-12-29T07:06:57;100114.31;;;1.61;85.06
48964;BME280;34776;48.180;16.420;2022-12-29T07:09:22;100114.25;;;1.67;85.06
48964;BME280;34776;48.180;16.420;2022-12-29T07:11:48;100119.41;;;1.76;84.94
48964;BME280;34776;48.180;16.420;2022-12-29T07:14:13;100115.00;;;1.83;84.81
48964;BME280;34776;48.180;16.420;2022-12-29T07:16:38;100114.09;;;1.86;84.95
48964;BME280;34776;48.180;16.420;2022-12-29T07:19:04;100125.34;;;1.94;84.84
48964;BME280;34776;48.180;16.420;2022-12-29T07:21:30;100128.78;;;1.97;84.60
48964;BME280;34776;48.180;16.420;2022-12-29T07:23:55;100115.66;;;1.99;84.92
48964;BME280;34776;48.180;16.420;2022-12-29T07:26:21;100108.66;;;2.02;84.63
48964;BME280;34776;48.180;16.420;2022-12-29T07:28:47;100101.63;;;2.06;84.73
48964;BME280;34776;48.180;16.420;2022-12-29T07:31:18;100105.97;;;2.07;84.61
48964;BME280;34776;48.180;16.420;2022-12-29T07:33:45;100105.03;;;2.14;84.72
48964;BME280;34776;48.180;16.420;2022-12-29T07:36:11;100098.88;;;2.17;84.73
48964;BME280;34776;48.180;16.420;2022-12-29T07:38:37;100096.25;;;2.15;84.56
48964;BME280;34776;48.180;16.420;2022-12-29T07:41:03;100097.16;;;2.14;84.54
48964;BME280;34776;48.180;16.420;2022-12-29T07:43:28;100098.03;;;2.13;84.62
48964;BME280;34776;48.180;16.420;2022-12-29T07:45:54;100111.06;;;2.18;84.67
48964;BME280;34776;48.180;16.420;2022-12-29T07:48:21;100107.53;;;2.20;84.68
48964;BME280;34776;48.180;16.420;2022-12-29T07:50:46;100104.84;;;2.27;84.62
48964;BME280;34776;48.180;16.420;2022-12-29T07:53:12;100106.53;;;2.31;84.49
48964;BME280;34776;48.180;16.420;2022-12-29T07:55:37;100106.59;;;2.28;84.33
48964;BME280;34776;48.180;16.420;2022-12-29T07:58:03;100103.06;;;2.29;84.33
48964;BME280;34776;48.180;16.420;2022-12-29T08:00:28;100112.59;;;2.36;84.57
48964;BME280;34776;48.180;16.420;2022-12-29T08:02:53;100116.94;;;2.37;84.58
48964;BME280;34776;48.180;16.420;2022-12-29T08:05:19;100119.50;;;2.41;84.41
48964;BME280;34776;48.180;16.420;2022-12-29T08:07:45;100113.38;;;2.44;84.25
48964;BME280;34776;48.180;16.420;2022-12-29T08:10:12;100117.72;;;2.43;84.08
48964;BME280;34776;48.180;16.420;2022-12-29T08:12:38;100114.25;;;2.43;84.17
48964;BME280;34776;48.180;16.420;2022-12-29T08:15:05;100110.75;;;2.44;84.24
48964;BME280;34776;48.180;16.420;2022-12-29T08:17:31;100117.78;;;2.40;84.01
48964;BME280;34776;48.180;16.420;2022-12-29T08:19:56;100122.19;;;2.37;84.27
48964;BME280;34776;48.180;16.420;2022-12-29T08:22:23;100115.22;;;2.37;84.31
48964;BME280;34776;48.180;16.420;2022-12-29T08:24:48;100118.78;;;2.32;84.25
48964;BME280;34776;48.180;16.420;2022-12-29T08:27:14;100120.53;;;2.31;84.50
48964;BME280;34776;48.180;16.420;2022-12-29T08:29:39;100108.28;;;2.32;84.59
48964;BME280;34776;48.180;16.420;2022-12-29T08:32:05;100110.00;;;2.33;84.72
48964;BME280;34776;48.180;16.420;2022-12-29T08:34:31;100108.22;;;2.35;84.55
48964;BME280;34776;48.180;16.420;2022-12-29T08:36:56;100110.84;;;2.36;84.69
48964;BME280;34776;48.180;16.420;2022-12-29T08:39:22;100122.19;;;2.38;84.39
48964;BME280;34776;48.180;16.420;2022-12-29T08:41:47;100120.34;;;2.45;84.39
48964;BME280;34776;48.180;16.420;2022-12-29T08:44:13;100119.41;;;2.51;84.53
48964;BME280;34776;48.180;16.420;2022-12-29T08:46:38;100125.44;;;2.57;84.58
48964;BME280;34776;48.180;16.420;2022-12-29T08:49:03;100115.78;;;2.58;84.39
48964;BME280;34776;48.180;16.420;2022-12-29T08:51:29;100122.81;;;2.57;84.35
48964;BME280;34776;48.180;16.420;2022-12-29T08:53:54;100117.63;;;2.54;84.17
48964;BME280;34776;48.180;16.420;2022-12-29T08:56:19;100109.78;;;2.51;84.49
48964;BME280;34776;48.180;16.420;2022-12-29T08:58:45;100118.47;;;2.56;84.62
48964;BME280;34776;48.180;16.420;2022-12-29T09:01:10;100113.06;;;2.66;84.68
48964;BME280;34776;48.180;16.420;2022-12-29T09:03:36;100111.25;;;2.71;84.37
48964;BME280;34776;48.180;16.420;2022-12-29T09:06:01;100109.53;;;2.67;84.17
48964;BME280;34776;48.180;16.420;2022-12-29T09:08:27;100111.31;;;2.64;84.46
48964;BME280;34776;48.180;16.420;2022-12-29T09:10:52;100107.06;;;2.59;84.21
48964;BME280;34776;48.180;16.420;2022-12-29T09:13:18;100099.16;;;2.60;84.16
48964;BME280;34776;48.180;16.420;2022-12-29T09:15:44;100107.06;;;2.57;84.25
48964;BME280;34776;48.180;16.420;2022-12-29T09:18:10;100100.97;;;2.55;84.16
48964;BME280;34776;48.180;16.420;2022-12-29T09:20:35;100094.84;;;2.56;84.14
48964;BME280;34776;48.180;16.420;2022-12-29T09:23:02;100091.41;;;2.51;84.12
48964;BME280;34776;48.180;16.420;2022-12-29T09:25:27;100090.47;;;2.55;84.13
48964;BME280;34776;48.180;16.420;2022-12-29T09:27:53;100090.44;;;2.58;84.04
48964;BME280;34776;48.180;16.420;2022-12-29T09:30:20;100093.88;;;2.63;83.86
48964;BME280;34776;48.180;16.420;2022-12-29T09:32:47;100078.97;;;2.66;83.75
48964;BME280;34776;48.180;16.420;2022-12-29T09:35:14;100082.44;;;2.66;83.60
48964;BME280;34776;48.180;16.420;2022-12-29T09:37:40;100066.72;;;2.64;83.40
48964;BME280;34776;48.180;16.420;2022-12-29T09:40:07;100065.00;;;2.65;83.81
48964;BME280;34776;48.180;16.420;2022-12-29T09:48:27;100076.06;;;2.84;83.20
48964;BME280;34776;48.180;16.420;2022-12-29T09:50:59;100075.16;;;2.85;82.98
48964;BME280;34776;48.180;16.420;2022-12-29T09:53:31;100071.69;;;2.84;82.81
48964;BME280;34776;48.180;16.420;2022-12-29T09:56:02;100076.81;;;2.92;82.76
48964;BME280;34776;48.180;16.420;2022-12-29T09:58:36;100075.88;;;2.96;82.67
48964;BME280;34776;48.180;16.420;2022-12-29T10:01:06;100074.09;;;2.98;82.56
48964;BME280;34776;48.180;16.420;2022-12-29T10:03:53;100065.34;;;2.98;82.44
48964;BME280;34776;48.180;16.420;2022-12-29T10:09:13;100057.53;;;2.95;82.37
48964;BME280;34776;48.180;16.420;2022-12-29T10:17:10;100060.91;;;3.03;82.51
48964;BME280;34776;48.180;16.420;2022-12-29T10:19:43;100066.84;;;3.13;82.76
48964;BME280;34776;48.180;16.420;2022-12-29T10:25:23;100062.28;;;3.25;82.21
48964;BME280;34776;48.180;16.420;2022-12-29T10:27:51;100055.06;;;3.35;82.15
48964;BME280;34776;48.180;16.420;2022-12-29T10:30:19;100051.53;;;3.38;81.99
48964;BME280;34776;48.180;16.420;2022-12-29T10:32:52;100055.88;;;3.40;82.05
48964;BME280;34776;48.180;16.420;2022-12-29T10:35:25;100051.28;;;3.52;81.79
48964;BME280;34776;48.180;16.420;2022-12-29T10:38:15;100054.78;;;3.51;81.66
48964;BME280;34776;48.180;16.420;2022-12-29T10:40:44;100051.16;;;3.58;81.47
48964;BME280;34776;48.180;16.420;2022-12-29T10:45:45;100047.41;;;3.71;81.29
48964;BME280;34776;48.180;16.420;2022-12-29T10:48:22;100044.88;;;3.65;80.93
48964;BME280;34776;48.180;16.420;2022-12-29T10:50:50;100043.50;;;3.45;81.05
48964;BME280;34776;48.180;16.420;2022-12-29T10:53:25;100055.88;;;3.40;81.50
48964;BME280;34776;48.180;16.420;2022-12-29T10:55:53;100048.06;;;3.36;81.52
48964;BME280;34776;48.180;16.420;2022-12-29T10:58:19;100055.09;;;3.34;81.80
48964;BME280;34776;48.180;16.420;2022-12-29T11:00:51;100054.19;;;3.36;82.08
48964;BME280;34776;48.180;16.420;2022-12-29T11:06:08;100038.06;;;3.55;81.53
48964;BME280;34776;48.180;16.420;2022-12-29T11:09:02;100030.41;;;3.44;81.52
48964;BME280;34776;48.180;16.420;2022-12-29T11:11:36;100024.25;;;3.47;81.75
48964;BME280;34776;48.180;16.420;2022-12-29T11:16:34;100028.16;;;3.69;81.50
48964;BME280;34776;48.180;16.420;2022-12-29T11:19:00;100035.22;;;3.67;81.34
48964;BME280;34776;48.180;16.420;2022-12-29T11:21:37;100039.50;;;3.71;81.43
48964;BME280;34776;48.180;16.420;2022-12-29T11:24:28;100035.22;;;3.67;81.08
48964;BME280;34776;48.180;16.420;2022-12-29T11:27:10;100036.00;;;3.72;81.27
48964;BME280;34776;48.180;16.420;2022-12-29T11:29:43;100022.69;;;3.80;81.08
48964;BME280;34776;48.180;16.420;2022-12-29T11:32:20;100018.50;;;3.71;80.89
48964;BME280;34776;48.180;16.420;2022-12-29T11:34:47;100022.06;;;3.67;80.92
48964;BME280;34776;48.180;16.420;2022-12-29T11:37:16;100016.78;;;3.70;81.22
48964;BME280;34776;48.180;16.420;2022-12-29T11:39:57;100023.69;;;3.74;81.17
48964;BME280;34776;48.180;16.420;2022-12-29T11:42:35;100032.59;;;3.67;81.07
48964;BME280;34776;48.180;16.420;2022-12-29T11:45:18;100017.00;;;3.58;81.27
48964;BME280;34776;48.180;16.420;2022-12-29T11:47:45;100011.63;;;3.64;81.88
48964;BME280;34776;48.180;16.420;2022-12-29T11:50:18;100003.56;;;3.73;81.73
48964;BME280;34776;48.180;16.420;2022-12-29T11:52:45;99990.25;;;3.82;81.33
48964;BME280;34776;48.180;16.420;2022-12-29T11:55:20;99999.72;;;3.90;81.41
48964;BME280;34776;48.180;16.420;2022-12-29T11:57:47;100001.19;;;4.03;81.07
48964;BME280;34776;48.180;16.420;2022-12-29T12:00:20;99995.78;;;4.09;80.89
48964;BME280;34776;48.180;16.420;2022-12-29T12:03:06;99999.13;;;4.16;80.58
48964;BME280;34776;48.180;16.420;2022-12-29T12:05:41;99999.22;;;4.13;80.19
48964;BME280;34776;48.180;16.420;2022-12-29T12:19:49;99989.56;;;4.13;80.45
48964;BME280;34776;48.180;16.420;2022-12-29T12:22:41;99988.78;;;4.10;80.22
48964;BME280;34776;48.180;16.420;2022-12-29T12:25:37;99975.59;;;4.11;80.45
48964;BME280;34776;48.180;16.420;2022-12-29T12:28:15;99986.06;;;4.14;80.35
48964;BME280;34776;48.180;16.420;2022-12-29T12:30:46;99974.38;;;4.26;80.03
48964;BME280;34776;48.180;16.420;2022-12-29T12:33:22;99983.91;;;4.32;80.06
48964;BME280;34776;48.180;16.420;2022-12-29T12:39:02;99985.03;;;4.57;79.61
48964;BME280;34776;48.180;16.420;2022-12-29T12:44:24;99965.59;;;4.64;78.99
48964;BME280;34776;48.180;16.420;2022-12-29T12:47:04;99955.63;;;4.76;78.18
48964;BME280;34776;48.180;16.420;2022-12-29T12:55:52;99965.31;;;5.08;77.67
48964;BME280;34776;48.180;16.420;2022-12-29T13:01:15;99965.56;;;5.00;77.19
48964;BME280;34776;48.180;16.420;2022-12-29T13:06:31;99947.59;;;4.82;78.15
48964;BME280;34776;48.180;16.420;2022-12-29T13:14:26;99953.13;;;5.05;77.86
48964;BME280;34776;48.180;16.420;2022-12-29T13:17:30;99955.75;;;5.05;77.32
48964;BME280;34776;48.180;16.420;2022-12-29T13:22:48;99944.59;;;4.61;77.72
48964;BME280;34776;48.180;16.420;2022-12-29T13:25:50;99955.72;;;4.37;78.24
48964;BME280;34776;48.180;16.420;2022-12-29T13:28:16;99956.19;;;4.17;78.88
48964;BME280;34776;48.180;16.420;2022-12-29T13:39:27;99956.19;;;3.76;81.08
48964;BME280;34776;48.180;16.420;2022-12-29T13:41:55;99964.09;;;3.76;81.22
48964;BME280;34776;48.180;16.420;2022-12-29T13:44:31;99960.63;;;3.74;81.12
48964;BME280;34776;48.180;16.420;2022-12-29T13:47:25;99963.16;;;3.79;81.38
48964;BME280;34776;48.180;16.420;2022-12-29T13:49:47;99971.00;;;3.80;81.23
48964;BME280;34776;48.180;16.420;2022-12-29T14:00:23;99972.00;;;3.73;81.43
48964;BME280;34776;48.180;16.420;2022-12-29T14:03:12;99974.78;;;3.67;81.68
48964;BME280;34776;48.180;16.420;2022-12-29T14:05:47;99965.06;;;3.71;81.76
48964;BME280;34776;48.180;16.420;2022-12-29T14:08:27;99976.63;;;3.62;82.03
48964;BME280;34776;48.180;16.420;2022-12-29T14:10:52;99978.53;;;3.55;82.11
48964;BME280;34776;48.180;16.420;2022-12-29T14:13:23;99979.53;;;3.48;82.26
48964;BME280;34776;48.180;16.420;2022-12-29T14:15:57;99970.81;;;3.46;82.41
48964;BME280;34776;48.180;16.420;2022-12-29T14:18:29;99974.50;;;3.37;82.54
48964;BME280;34776;48.180;16.420;2022-12-29T14:21:18;99973.72;;;3.32;82.79
48964;BME280;34776;48.180;16.420;2022-12-29T14:23:47;99974.59;;;3.33;82.79
48964;BME280;34776;48.180;16.420;2022-12-29T14:26:34;99970.38;;;3.24;83.01
48964;BME280;34776;48.180;16.420;2022-12-29T14:31:43;99981.13;;;3.09;83.57
48964;BME280;34776;48.180;16.420;2022-12-29T14:36:39;99975.28;;;2.94;83.97
48964;BME280;34776;48.180;16.420;2022-12-29T14:39:37;99981.53;;;2.87;84.48
48964;BME280;34776;48.180;16.420;2022-12-29T14:44:52;99981.53;;;2.87;84.65
48964;BME280;34776;48.180;16.420;2022-12-29T14:49:51;99977.28;;;2.80;84.76
48964;BME280;34776;48.180;16.420;2022-12-29T14:52:20;99980.84;;;2.76;84.84
48964;BME280;34776;48.180;16.420;2022-12-29T14:54:52;99974.69;;;2.77;84.90
48964;BME280;34776;48.180;16.420;2022-12-29T14:57:28;99983.56;;;2.70;84.91
48964;BME280;34776;48.180;16.420;2022-12-29T15:00:01;99983.69;;;2.63;85.28
48964;BME280;34776;48.180;16.420;2022-12-29T15:02:34;99976.75;;;2.59;85.45
48964;BME280;34776;48.180;16.420;2022-12-29T15:05:00;99980.31;;;2.55;85.32